Salacak — 3FBM4 — position and weather

sailwx.info

Track history (hours):
 
Tides and Currents Weather Stations Pressure Air Temp Water Temp Dewpoint Dewpoint Depression Visibility Wind Speed Wind Dir Waves Ship Positions

Salacak

Last reported at 2017-Nov-07 12:10 UTC. Time now 2017-Nov-20 13:56 UTC.
Position N 46°25' E 030°56'.
Warning: this ship's position is 13 days out of date.

Length 126 m; draft 9.1 m.

Type: Cargo ship. MMSI: 373532000.

Date/timePositionNaut miles runAvg speedWind from/ knotsBaromVisibWave heightAir tempDewpointWater temp
2017-Nov-07 12:10N 46°25' E 030°56'210.9
2017-Nov-07 11:58N 46°27' E 030°56'27 8.8
2017-Nov-07 08:55N 46°35' E 031°33'6 9.7
2017-Nov-07 08:16N 46°36' E 031°42'3 9.7
2017-Nov-07 07:57N 46°36' E 031°47'4 9.5
2017-Nov-07 07:29N 46°37' E 031°53'4 9.1
2017-Nov-07 07:01N 46°41' E 031°56'4 8.9
2017-Nov-07 06:31N 46°45' E 031°54'5 9.3
2017-Nov-07 06:01N 46°50' E 031°55'510.5
2017-Nov-07 05:31N 46°54' E 032°00'3 6.5
2017-Nov-07 05:01N 46°57' E 032°00'0 0.1
2017-Nov-07 04:30N 46°57' E 032°00'0 0.0
2017-Nov-07 04:00N 46°57' E 032°00'0 0.0
2017-Nov-07 03:30N 46°57' E 032°00'0 0.0
2017-Nov-07 03:00N 46°57' E 032°00'0 0.0
2017-Nov-07 02:30N 46°57' E 032°00'0 0.0
2017-Nov-07 02:00N 46°57' E 032°00'0 0.0
2017-Nov-07 01:30N 46°57' E 032°00'0 0.0
2017-Nov-07 01:00N 46°57' E 032°00'0 0.0
2017-Nov-07 00:30N 46°57' E 032°00'0 0.0
2017-Nov-07 00:00N 46°57' E 032°00'0 0.0
2017-Nov-06 23:30N 46°57' E 032°00'0 0.0
2017-Nov-06 23:00N 46°57' E 032°00'0 0.0
2017-Nov-06 22:30N 46°57' E 032°00'0 0.0
2017-Nov-06 22:00N 46°57' E 032°00'0 0.0
2017-Nov-06 21:30N 46°57' E 032°00'0 0.0
2017-Nov-06 21:00N 46°57' E 032°00'0 0.0
2017-Nov-06 20:30N 46°57' E 032°00'0 0.0
2017-Nov-06 02:29N 46°57' E 032°00'0 0.0
2017-Nov-06 01:59N 46°57' E 032°00'0 0.0
2017-Nov-06 01:29N 46°57' E 032°00'0 0.0
2017-Nov-06 00:59N 46°57' E 032°00'0 0.0
2017-Nov-06 00:29N 46°57' E 032°00'0 0.0
2017-Nov-05 23:59N 46°57' E 032°00'0 0.0
2017-Nov-05 23:29N 46°57' E 032°00'0 0.0
2017-Nov-05 22:59N 46°57' E 032°00'0 0.0
2017-Nov-05 22:29N 46°57' E 032°00'0 0.0
2017-Nov-05 21:59N 46°57' E 032°00'0 0.0
2017-Nov-05 21:29N 46°57' E 032°00'0 0.0
2017-Nov-05 20:59N 46°57' E 032°00'0 0.0
2017-Nov-05 20:29N 46°57' E 032°00'0 0.0
2017-Nov-05 19:59N 46°57' E 032°00'0 0.0
2017-Nov-05 19:29N 46°57' E 032°00'0 0.0
2017-Nov-05 18:59N 46°57' E 032°00'0 0.0
2017-Nov-05 18:29N 46°57' E 032°00'0 0.0
2017-Nov-05 17:56N 46°57' E 032°00'0 0.0
2017-Nov-05 17:29N 46°57' E 032°00'0 0.0
2017-Nov-05 16:59N 46°57' E 032°00'0 0.0
2017-Nov-05 16:29N 46°57' E 032°00'0 0.0
2017-Nov-05 15:59N 46°57' E 032°00'0 0.0
2017-Nov-05 15:29N 46°57' E 032°00'0 0.0
2017-Nov-05 14:59N 46°57' E 032°00'0 0.0
2017-Nov-05 14:29N 46°57' E 032°00'0 0.0
2017-Nov-05 13:59N 46°57' E 032°00'0 0.0
2017-Nov-05 13:29N 46°57' E 032°00'0 0.0
2017-Nov-05 12:59N 46°57' E 032°00'0 0.0
2017-Nov-05 12:26N 46°57' E 032°00'0 0.0
2017-Nov-05 02:29N 46°57' E 032°00'0 0.0
2017-Nov-05 01:50N 46°57' E 032°00'0 0.0
2017-Nov-05 01:29N 46°57' E 032°00'0 0.0
2017-Nov-04 14:55N 46°57' E 032°00'0 0.0
2017-Nov-04 13:55N 46°57' E 032°00'0 0.0
2017-Nov-04 13:28N 46°57' E 032°00'0 0.0
2017-Nov-04 12:58N 46°57' E 032°00'0 0.0
2017-Nov-04 12:28N 46°57' E 032°00'0 0.0
2017-Nov-04 11:58N 46°57' E 032°00'0 0.0
2017-Nov-04 11:28N 46°57' E 032°00'0 0.0
2017-Nov-04 10:58N 46°57' E 032°00'0 0.0
2017-Nov-04 10:28N 46°57' E 032°00'0 0.0
2017-Nov-04 09:58N 46°57' E 032°00'0 0.0
2017-Nov-04 09:28N 46°57' E 032°00'0 0.0
2017-Nov-04 08:58N 46°57' E 032°00'0 0.0
2017-Nov-04 08:28N 46°57' E 032°00'0 0.0
2017-Nov-04 07:58N 46°57' E 032°00'0 0.0
2017-Nov-04 07:28N 46°57' E 032°00'0 0.0
2017-Nov-04 06:58N 46°57' E 032°00'0 0.0
2017-Nov-04 06:28N 46°57' E 032°00'0 0.0
2017-Nov-04 05:58N 46°57' E 032°00'0 0.0
2017-Nov-04 05:28N 46°57' E 032°00'0 0.0
2017-Nov-04 04:58N 46°57' E 032°00'0 0.0
2017-Nov-04 00:48N 46°57' E 032°00'0 0.6
2017-Nov-04 00:30N 46°57' E 032°01'2 4.2
2017-Nov-04 00:00N 46°55' E 032°01'510.5
2017-Nov-03 23:30N 46°50' E 031°56'5 9.8
2017-Nov-03 23:00N 46°46' E 031°53'4 7.4
2017-Nov-03 22:30N 46°43' E 031°56'0 0.0
2017-Nov-03 19:19N 46°43' E 031°56'0 0.0
2017-Nov-03 18:55N 46°43' E 031°56'0 0.0
2017-Nov-03 17:07N 46°43' E 031°56'0 0.0
2017-Nov-03 16:55N 46°43' E 031°56'0 0.0
2017-Nov-03 16:22N 46°43' E 031°56'0 0.0
2017-Nov-03 15:58N 46°43' E 031°56'0 0.0
2017-Nov-03 15:28N 46°43' E 031°56'0 0.0
2017-Nov-03 14:58N 46°43' E 031°56'0 0.0
2017-Nov-03 14:28N 46°43' E 031°56'0 0.0
2017-Nov-03 13:58N 46°43' E 031°56'0 0.0
2017-Nov-03 13:28N 46°43' E 031°56'0 0.1
2017-Nov-03 12:58N 46°43' E 031°56'0 0.0
2017-Nov-03 12:28N 46°43' E 031°56'0 0.0
2017-Nov-03 11:58N 46°43' E 031°56'0 0.0
2017-Nov-03 11:28N 46°43' E 031°56'0 0.0
2017-Nov-03 10:58N 46°43' E 031°56'0 0.1
2017-Nov-03 10:25N 46°43' E 031°56'0 0.2
2017-Nov-03 09:58N 46°43' E 031°56'0 0.0
2017-Nov-03 09:28N 46°43' E 031°56'0 0.1
2017-Nov-03 08:58N 46°43' E 031°56'0 0.1
2017-Nov-03 08:28N 46°43' E 031°56'0 0.1
2017-Nov-03 07:58N 46°43' E 031°56'0 0.0
2017-Nov-03 06:04N 46°43' E 031°56'0 0.0
2017-Nov-03 05:46N 46°43' E 031°56'0 0.0
2017-Nov-03 05:28N 46°43' E 031°56'0 0.0
2017-Nov-03 04:46N 46°43' E 031°56'0 0.0
2017-Nov-03 02:58N 46°43' E 031°56'0 0.0
2017-Nov-03 02:28N 46°43' E 031°56'0 0.0
2017-Nov-03 01:58N 46°43' E 031°56'0 0.1
2017-Nov-03 01:28N 46°43' E 031°56'0 0.0
2017-Nov-02 23:40N 46°43' E 031°56'0 0.0
2017-Nov-02 22:22N 46°43' E 031°56'0 0.0
2017-Nov-02 20:52N 46°43' E 031°56'0 0.0
2017-Nov-02 20:28N 46°43' E 031°56'0 0.0
2017-Nov-02 19:52N 46°43' E 031°56'0 0.0
2017-Nov-02 19:28N 46°43' E 031°56'0 0.0
2017-Nov-02 07:45N 46°43' E 031°56'0 0.0
2017-Nov-02 07:27N 46°43' E 031°56'0 0.0
2017-Nov-02 06:57N 46°43' E 031°56'0 0.0
2017-Nov-02 06:27N 46°43' E 031°56'0 0.1
2017-Nov-02 06:00N 46°43' E 031°56'0 0.0
2017-Nov-02 05:30N 46°43' E 031°56'0 0.0
2017-Nov-02 05:00N 46°43' E 031°56'0 0.0
2017-Nov-02 04:30N 46°43' E 031°56'0 0.1
2017-Nov-02 04:00N 46°43' E 031°56'0 0.0
2017-Nov-02 03:27N 46°43' E 031°56'0 0.0
2017-Nov-02 03:00N 46°43' E 031°56'0 0.0
2017-Nov-02 02:30N 46°43' E 031°56'0 0.0
2017-Nov-02 02:00N 46°43' E 031°56'0 0.0
2017-Nov-02 01:30N 46°43' E 031°56'0 0.1
2017-Nov-02 01:00N 46°43' E 031°56'0 0.0
2017-Nov-02 00:30N 46°43' E 031°56'0 0.0
2017-Nov-02 00:00N 46°43' E 031°56'0 0.0
2017-Nov-01 23:30N 46°43' E 031°56'0 0.0
2017-Nov-01 22:57N 46°43' E 031°56'0 0.0
2017-Nov-01 22:30N 46°43' E 031°56'  
2017-Oct-29 10:40N 44°20' E 029°33'211.6
2017-Oct-29 10:30N 44°18' E 029°32'611.6
2017-Oct-29 10:00N 44°13' E 029°28'611.6
2017-Oct-29 09:30N 44°08' E 029°24'611.4
2017-Oct-29 09:00N 44°03' E 029°20'611.6
2017-Oct-29 08:30N 43°58' E 029°16'611.5
2017-Oct-29 08:00N 43°53' E 029°12'811.2
2017-Oct-29 07:17N 43°46' E 029°06'611.2
2017-Oct-29 06:43N 43°41' E 029°02'  
Track history (hours):
 
Tides and Currents Weather Stations Pressure Air Temp Water Temp Dewpoint Dewpoint Depression Visibility Wind Speed Wind Dir Waves Ship Positions

Salacak

Last reported at 2017-Nov-07 12:10 UTC. Time now 2017-Nov-20 13:56 UTC.
Position N 46°25' E 030°56'.
Warning: this ship's position is 13 days out of date.

Length 126 m; draft 9.1 m.

Type: Cargo ship. MMSI: 373532000.

Date/timePositionNaut miles runAvg speedWind from/ knotsBaromVisibWave heightAir tempDewpointWater temp
2017-Nov-07 12:10N 46°25' E 030°56'210.9
2017-Nov-07 11:58N 46°27' E 030°56'27 8.8
2017-Nov-07 08:55N 46°35' E 031°33'6 9.7
2017-Nov-07 08:16N 46°36' E 031°42'3 9.7
2017-Nov-07 07:57N 46°36' E 031°47'4 9.5
2017-Nov-07 07:29N 46°37' E 031°53'4 9.1
2017-Nov-07 07:01N 46°41' E 031°56'4 8.9
2017-Nov-07 06:31N 46°45' E 031°54'5 9.3
2017-Nov-07 06:01N 46°50' E 031°55'510.5
2017-Nov-07 05:31N 46°54' E 032°00'3 6.5
2017-Nov-07 05:01N 46°57' E 032°00'0 0.1
2017-Nov-07 04:30N 46°57' E 032°00'0 0.0
2017-Nov-07 04:00N 46°57' E 032°00'0 0.0
2017-Nov-07 03:30N 46°57' E 032°00'0 0.0
2017-Nov-07 03:00N 46°57' E 032°00'0 0.0
2017-Nov-07 02:30N 46°57' E 032°00'0 0.0
2017-Nov-07 02:00N 46°57' E 032°00'0 0.0
2017-Nov-07 01:30N 46°57' E 032°00'0 0.0
2017-Nov-07 01:00N 46°57' E 032°00'0 0.0
2017-Nov-07 00:30N 46°57' E 032°00'0 0.0
2017-Nov-07 00:00N 46°57' E 032°00'0 0.0
2017-Nov-06 23:30N 46°57' E 032°00'0 0.0
2017-Nov-06 23:00N 46°57' E 032°00'0 0.0
2017-Nov-06 22:30N 46°57' E 032°00'0 0.0
2017-Nov-06 22:00N 46°57' E 032°00'0 0.0
2017-Nov-06 21:30N 46°57' E 032°00'0 0.0
2017-Nov-06 21:00N 46°57' E 032°00'0 0.0
2017-Nov-06 20:30N 46°57' E 032°00'0 0.0
2017-Nov-06 02:29N 46°57' E 032°00'0 0.0
2017-Nov-06 01:59N 46°57' E 032°00'0 0.0
2017-Nov-06 01:29N 46°57' E 032°00'0 0.0
2017-Nov-06 00:59N 46°57' E 032°00'0 0.0
2017-Nov-06 00:29N 46°57' E 032°00'0 0.0
2017-Nov-05 23:59N 46°57' E 032°00'0 0.0
2017-Nov-05 23:29N 46°57' E 032°00'0 0.0
2017-Nov-05 22:59N 46°57' E 032°00'0 0.0
2017-Nov-05 22:29N 46°57' E 032°00'0 0.0
2017-Nov-05 21:59N 46°57' E 032°00'0 0.0
2017-Nov-05 21:29N 46°57' E 032°00'0 0.0
2017-Nov-05 20:59N 46°57' E 032°00'0 0.0
2017-Nov-05 20:29N 46°57' E 032°00'0 0.0
2017-Nov-05 19:59N 46°57' E 032°00'0 0.0
2017-Nov-05 19:29N 46°57' E 032°00'0 0.0
2017-Nov-05 18:59N 46°57' E 032°00'0 0.0
2017-Nov-05 18:29N 46°57' E 032°00'0 0.0
2017-Nov-05 17:56N 46°57' E 032°00'0 0.0
2017-Nov-05 17:29N 46°57' E 032°00'0 0.0
2017-Nov-05 16:59N 46°57' E 032°00'0 0.0
2017-Nov-05 16:29N 46°57' E 032°00'0 0.0
2017-Nov-05 15:59N 46°57' E 032°00'0 0.0
2017-Nov-05 15:29N 46°57' E 032°00'0 0.0
2017-Nov-05 14:59N 46°57' E 032°00'0 0.0
2017-Nov-05 14:29N 46°57' E 032°00'0 0.0
2017-Nov-05 13:59N 46°57' E 032°00'0 0.0
2017-Nov-05 13:29N 46°57' E 032°00'0 0.0
2017-Nov-05 12:59N 46°57' E 032°00'0 0.0
2017-Nov-05 12:26N 46°57' E 032°00'0 0.0
2017-Nov-05 02:29N 46°57' E 032°00'0 0.0
2017-Nov-05 01:50N 46°57' E 032°00'0 0.0
2017-Nov-05 01:29N 46°57' E 032°00'0 0.0
2017-Nov-04 14:55N 46°57' E 032°00'0 0.0
2017-Nov-04 13:55N 46°57' E 032°00'0 0.0
2017-Nov-04 13:28N 46°57' E 032°00'0 0.0
2017-Nov-04 12:58N 46°57' E 032°00'0 0.0
2017-Nov-04 12:28N 46°57' E 032°00'0 0.0
2017-Nov-04 11:58N 46°57' E 032°00'0 0.0
2017-Nov-04 11:28N 46°57' E 032°00'0 0.0
2017-Nov-04 10:58N 46°57' E 032°00'0 0.0
2017-Nov-04 10:28N 46°57' E 032°00'0 0.0
2017-Nov-04 09:58N 46°57' E 032°00'0 0.0
2017-Nov-04 09:28N 46°57' E 032°00'0 0.0
2017-Nov-04 08:58N 46°57' E 032°00'0 0.0
2017-Nov-04 08:28N 46°57' E 032°00'0 0.0
2017-Nov-04 07:58N 46°57' E 032°00'0 0.0
2017-Nov-04 07:28N 46°57' E 032°00'0 0.0
2017-Nov-04 06:58N 46°57' E 032°00'0 0.0
2017-Nov-04 06:28N 46°57' E 032°00'0 0.0
2017-Nov-04 05:58N 46°57' E 032°00'0 0.0
2017-Nov-04 05:28N 46°57' E 032°00'0 0.0
2017-Nov-04 04:58N 46°57' E 032°00'0 0.0
2017-Nov-04 00:48N 46°57' E 032°00'0 0.6
2017-Nov-04 00:30N 46°57' E 032°01'2 4.2
2017-Nov-04 00:00N 46°55' E 032°01'510.5
2017-Nov-03 23:30N 46°50' E 031°56'5 9.8
2017-Nov-03 23:00N 46°46' E 031°53'4 7.4
2017-Nov-03 22:30N 46°43' E 031°56'0 0.0
2017-Nov-03 19:19N 46°43' E 031°56'0 0.0
2017-Nov-03 18:55N 46°43' E 031°56'0 0.0
2017-Nov-03 17:07N 46°43' E 031°56'0 0.0
2017-Nov-03 16:55N 46°43' E 031°56'0 0.0
2017-Nov-03 16:22N 46°43' E 031°56'0 0.0
2017-Nov-03 15:58N 46°43' E 031°56'0 0.0
2017-Nov-03 15:28N 46°43' E 031°56'0 0.0
2017-Nov-03 14:58N 46°43' E 031°56'0 0.0
2017-Nov-03 14:28N 46°43' E 031°56'0 0.0
2017-Nov-03 13:58N 46°43' E 031°56'0 0.0
2017-Nov-03 13:28N 46°43' E 031°56'0 0.1
2017-Nov-03 12:58N 46°43' E 031°56'0 0.0
2017-Nov-03 12:28N 46°43' E 031°56'0 0.0
2017-Nov-03 11:58N 46°43' E 031°56'0 0.0
2017-Nov-03 11:28N 46°43' E 031°56'0 0.0
2017-Nov-03 10:58N 46°43' E 031°56'0 0.1
2017-Nov-03 10:25N 46°43' E 031°56'0 0.2
2017-Nov-03 09:58N 46°43' E 031°56'0 0.0
2017-Nov-03 09:28N 46°43' E 031°56'0 0.1
2017-Nov-03 08:58N 46°43' E 031°56'0 0.1
2017-Nov-03 08:28N 46°43' E 031°56'0 0.1
2017-Nov-03 07:58N 46°43' E 031°56'0 0.0
2017-Nov-03 06:04N 46°43' E 031°56'0 0.0
2017-Nov-03 05:46N 46°43' E 031°56'0 0.0
2017-Nov-03 05:28N 46°43' E 031°56'0 0.0
2017-Nov-03 04:46N 46°43' E 031°56'0 0.0
2017-Nov-03 02:58N 46°43' E 031°56'0 0.0
2017-Nov-03 02:28N 46°43' E 031°56'0 0.0
2017-Nov-03 01:58N 46°43' E 031°56'0 0.1
2017-Nov-03 01:28N 46°43' E 031°56'0 0.0
2017-Nov-02 23:40N 46°43' E 031°56'0 0.0
2017-Nov-02 22:22N 46°43' E 031°56'0 0.0
2017-Nov-02 20:52N 46°43' E 031°56'0 0.0
2017-Nov-02 20:28N 46°43' E 031°56'0 0.0
2017-Nov-02 19:52N 46°43' E 031°56'0 0.0
2017-Nov-02 19:28N 46°43' E 031°56'0 0.0
2017-Nov-02 07:45N 46°43' E 031°56'0 0.0
2017-Nov-02 07:27N 46°43' E 031°56'0 0.0
2017-Nov-02 06:57N 46°43' E 031°56'0 0.0
2017-Nov-02 06:27N 46°43' E 031°56'0 0.1
2017-Nov-02 06:00N 46°43' E 031°56'0 0.0
2017-Nov-02 05:30N 46°43' E 031°56'0 0.0
2017-Nov-02 05:00N 46°43' E 031°56'0 0.0
2017-Nov-02 04:30N 46°43' E 031°56'0 0.1
2017-Nov-02 04:00N 46°43' E 031°56'0 0.0
2017-Nov-02 03:27N 46°43' E 031°56'0 0.0
2017-Nov-02 03:00N 46°43' E 031°56'0 0.0
2017-Nov-02 02:30N 46°43' E 031°56'0 0.0
2017-Nov-02 02:00N 46°43' E 031°56'0 0.0
2017-Nov-02 01:30N 46°43' E 031°56'0 0.1
2017-Nov-02 01:00N 46°43' E 031°56'0 0.0
2017-Nov-02 00:30N 46°43' E 031°56'0 0.0
2017-Nov-02 00:00N 46°43' E 031°56'0 0.0
2017-Nov-01 23:30N 46°43' E 031°56'0 0.0
2017-Nov-01 22:57N 46°43' E 031°56'0 0.0
2017-Nov-01 22:30N 46°43' E 031°56'  
2017-Oct-29 10:40N 44°20' E 029°33'211.6
2017-Oct-29 10:30N 44°18' E 029°32'611.6
2017-Oct-29 10:00N 44°13' E 029°28'611.6
2017-Oct-29 09:30N 44°08' E 029°24'611.4
2017-Oct-29 09:00N 44°03' E 029°20'611.6
2017-Oct-29 08:30N 43°58' E 029°16'611.5
2017-Oct-29 08:00N 43°53' E 029°12'811.2
2017-Oct-29 07:17N 43°46' E 029°06'611.2
2017-Oct-29 06:43N 43°41' E 029°02'  

Dump ship's entire track history